Stocks held by Mirae Asset Midcap Fund

#Stock NamePrevious Number of SharesPrevious DateCurrent Number of SharesPercentage ChangeLast Changed
1Delhivery Ltd4,000,0002024-06-238,469,640111.74%2024-06-24
2Data Patterns (India) Ltd508,5712024-06-23165,944-67.37%2024-06-24
3Craftsman Automation Ltd513,0832024-06-22250,360-51.20%2024-06-24
4Campus Activewear Ltd1,082,4472024-06-223,230,667198.46%2024-06-24
5Bayer CropScience Ltd531,4602024-06-23510,084-4.02%2024-06-24
6Voltas Ltd4,376,9362024-06-231,224,962-72.01%2024-06-24
7Thermax Ltd331,8692024-06-23883,439166.20%2024-06-24
8Federal Bank Ltd35,149,0802024-06-2331,465,796-10.48%2024-06-24
9Team Lease Services Ltd252,9482024-06-23410,66562.35%2024-06-24
10Sudarshan Chemical Industries Ltd49,9222024-06-231,788,3333,482.25%2024-06-24
11SKF India Ltd1,724,6292024-06-23429,623-75.09%2024-06-24
12Prince Pipes & Fittings Ltd377,8502024-06-222,173,688475.28%2024-06-24
13Prestige Estates Projects Ltd2,500,0002024-06-212,515,7320.63%2024-06-24
14Power Finance Corporation Ltd (PFC)10,242,1362024-06-239,495,652-7.29%2024-06-24
15NRB Bearings Ltd53,6402024-06-232,102,6793,819.98%2024-06-24
16Natco Pharma Ltd750,5512024-06-231,924,853156.46%2024-06-24
17Max Financial Services Ltd3,592,2912024-06-232,611,508-27.30%2024-06-24
18Lupin Ltd5,051,5562024-06-212,934,086-41.92%2024-06-24
19LIC Housing Finance Ltd2,334,0002024-06-224,252,92482.22%2024-06-24
20Laurus Labs Ltd2,828,9622024-06-234,110,03445.28%2024-06-24
21Kajaria Ceramics Ltd1,292,0752024-06-231,451,34612.33%2024-06-24
22J K Cements Ltd2,318,6162024-06-23610,521-73.67%2024-06-24
23Indraprastha Gas Ltd2,847,9042024-06-224,115,10844.50%2024-06-24
24Indian Bank9,723,9102024-06-236,969,612-28.33%2024-06-24
25Honeywell Automation India Ltd32,2662024-06-2340,50625.54%2024-06-24
26HDFC Asset Management Company Ltd1,704,5662024-06-221,013,714-40.53%2024-06-24
27Gujarat State Petronet Ltd3,783,2892024-06-228,248,135118.01%2024-06-24
28Fortis Healthcare Ltd12,253,2752024-06-236,970,745-43.11%2024-06-24
29Tata Communications Ltd739,0772024-06-211,739,986135.43%2024-06-24
30Electronics Mart India Ltd2,102,2592024-06-222,596,17123.49%2024-06-24
31Emami Ltd5,780,1272024-06-233,619,839-37.37%2024-06-24
32Deepak Nitrite Ltd1,000,0002024-06-23418,221-58.18%2024-06-24
33Crompton Greaves Consumer Electricals Ltd13,262,7262024-06-218,657,559-34.72%2024-06-24
34Container Corporation Of India Ltd2,379,9102024-06-223,208,52334.82%2024-06-24
35Century Plyboards (India) Ltd1,856,3332024-06-231,903,2812.53%2024-06-24
36CEAT Ltd52,1052024-06-23875,3631,580.00%2024-06-24
37Bharat Forge Ltd8,132,7262024-06-232,661,743-67.27%2024-06-24
38Bata India Ltd3,155,1932024-06-231,719,089-45.52%2024-06-24
39Atul Ltd1,134,4162024-06-23236,100-79.19%2024-06-24
40Ajanta Pharma Ltd775,2592024-06-23510,521-34.15%2024-06-24

About the Author

Author Avatar
Getaka

Getaka, CFA, a financial analyst with 15 years of experience in the industry. Getaka holds an MBA degree and the Chartered Financial Analyst designation, demonstrating his profound understanding of financial analysis and investment management. Throughout his career, he has conducted numerous financial analyses and due diligence processes for companies in the industry, and has a strong track record of identifying key trends and opportunities. He leverages his expertise to deliver a thorough financial analysis of a company, encompassing its financial performance, key ratios, future prospects, and risks. Getaka is committed to providing accurate, reliable, and trustworthy information to help readers make informed decisions about their finances and investments.